sensor_id;sensor_type;location;lat;lon;timestamp;pressure;altitude;pressure_sealevel;temperature;humidity
6136;BME280;24008;42.664;23.372;2022-12-18T00:00:05;95470.66;;;6.67;100.00
6136;BME280;24008;42.664;23.372;2022-12-18T00:02:32;95476.97;;;6.62;100.00
6136;BME280;24008;42.664;23.372;2022-12-18T00:04:59;95475.25;;;6.62;100.00
6136;BME280;24008;42.664;23.372;2022-12-18T00:07:26;95366.75;;;5.85;100.00
6136;BME280;24008;42.664;23.372;2022-12-18T00:09:52;95403.19;;;6.11;100.00
6136;BME280;24008;42.664;23.372;2022-12-18T00:12:20;95484.16;;;6.55;100.00
6136;BME280;24008;42.664;23.372;2022-12-18T00:14:47;95477.34;;;6.56;100.00
6136;BME280;24008;42.664;23.372;2022-12-18T00:17:14;95485.88;;;6.55;100.00
6136;BME280;24008;42.664;23.372;2022-12-18T00:19:41;95227.66;;;4.86;100.00
6136;BME280;24008;42.664;23.372;2022-12-18T00:22:07;95496.81;;;6.42;100.00
6136;BME280;24008;42.664;23.372;2022-12-18T00:24:34;95491.94;;;6.39;100.00
6136;BME280;24008;42.664;23.372;2022-12-18T00:27:01;95506.81;;;6.31;100.00
6136;BME280;24008;42.664;23.372;2022-12-18T00:29:32;95513.19;;;6.24;100.00
6136;BME280;24008;42.664;23.372;2022-12-18T00:31:59;95494.41;;;6.00;100.00
6136;BME280;24008;42.664;23.372;2022-12-18T00:34:26;95524.75;;;6.16;100.00
6136;BME280;24008;42.664;23.372;2022-12-18T00:36:53;95510.69;;;6.10;100.00
6136;BME280;24008;42.664;23.372;2022-12-18T00:39:19;95420.66;;;5.48;100.00
6136;BME280;24008;42.664;23.372;2022-12-18T00:41:46;95441.19;;;5.57;100.00
6136;BME280;24008;42.664;23.372;2022-12-18T00:44:32;95518.34;;;5.96;100.00
6136;BME280;24008;42.664;23.372;2022-12-18T00:46:58;95513.34;;;5.94;100.00
6136;BME280;24008;42.664;23.372;2022-12-18T00:49:25;95445.00;;;5.50;100.00
6136;BME280;24008;42.664;23.372;2022-12-18T00:51:55;95476.75;;;5.70;100.00
6136;BME280;24008;42.664;23.372;2022-12-18T00:54:22;95482.66;;;5.70;100.00
6136;BME280;24008;42.664;23.372;2022-12-18T00:56:49;95501.13;;;5.72;100.00
6136;BME280;24008;42.664;23.372;2022-12-18T00:59:37;95441.50;;;5.24;100.00
6136;BME280;24008;42.664;23.372;2022-12-18T01:02:04;95525.03;;;5.83;100.00
6136;BME280;24008;42.664;23.372;2022-12-18T01:04:31;95523.31;;;5.83;100.00
6136;BME280;24008;42.664;23.372;2022-12-18T01:07:16;95532.63;;;5.83;100.00
6136;BME280;24008;42.664;23.372;2022-12-18T01:09:43;95530.19;;;5.81;100.00
6136;BME280;24008;42.664;23.372;2022-12-18T01:12:10;95537.91;;;5.79;100.00
6136;BME280;24008;42.664;23.372;2022-12-18T01:14:38;95555.13;;;5.74;100.00
6136;BME280;24008;42.664;23.372;2022-12-18T01:17:05;95501.53;;;5.38;100.00
6136;BME280;24008;42.664;23.372;2022-12-18T01:19:32;95539.09;;;5.74;100.00
6136;BME280;24008;42.664;23.372;2022-12-18T01:21:59;95540.09;;;5.71;100.00
6136;BME280;24008;42.664;23.372;2022-12-18T01:24:26;95546.34;;;5.66;100.00
6136;BME280;24008;42.664;23.372;2022-12-18T01:26:53;95538.28;;;5.59;100.00
6136;BME280;24008;42.664;23.372;2022-12-18T01:29:19;95546.25;;;5.53;100.00
6136;BME280;24008;42.664;23.372;2022-12-18T01:31:47;95510.56;;;5.28;100.00
6136;BME280;24008;42.664;23.372;2022-12-18T01:34:14;95506.56;;;5.24;100.00
6136;BME280;24008;42.664;23.372;2022-12-18T01:36:41;95545.44;;;5.38;100.00
6136;BME280;24008;42.664;23.372;2022-12-18T01:39:10;95242.84;;;3.42;100.00
6136;BME280;24008;42.664;23.372;2022-12-18T01:41:38;95461.38;;;4.74;100.00
6136;BME280;24008;42.664;23.372;2022-12-18T01:44:52;95559.63;;;5.27;100.00
6136;BME280;24008;42.664;23.372;2022-12-18T01:47:23;95478.91;;;4.77;100.00
6136;BME280;24008;42.664;23.372;2022-12-18T01:49:51;95515.31;;;4.90;100.00
6136;BME280;24008;42.664;23.372;2022-12-18T01:52:19;95564.41;;;5.17;100.00
6136;BME280;24008;42.664;23.372;2022-12-18T01:54:47;95361.38;;;3.92;100.00
6136;BME280;24008;42.664;23.372;2022-12-18T01:57:15;95568.66;;;5.17;100.00
6136;BME280;24008;42.664;23.372;2022-12-18T01:59:45;95525.88;;;4.82;100.00
6136;BME280;24008;42.664;23.372;2022-12-18T02:02:15;95578.88;;;5.15;100.00
6136;BME280;24008;42.664;23.372;2022-12-18T02:04:43;95494.97;;;4.61;100.00
6136;BME280;24008;42.664;23.372;2022-12-18T02:07:14;95575.72;;;5.12;100.00
6136;BME280;24008;42.664;23.372;2022-12-18T02:09:47;95537.59;;;4.69;100.00
6136;BME280;24008;42.664;23.372;2022-12-18T02:12:18;95588.00;;;5.03;100.00
6136;BME280;24008;42.664;23.372;2022-12-18T02:14:53;95583.75;;;5.04;100.00
6136;BME280;24008;42.664;23.372;2022-12-18T02:17:23;95530.63;;;4.58;100.00
6136;BME280;24008;42.664;23.372;2022-12-18T02:20:04;95598.31;;;5.00;100.00
6136;BME280;24008;42.664;23.372;2022-12-18T02:22:37;95345.25;;;3.49;100.00
6136;BME280;24008;42.664;23.372;2022-12-18T02:25:16;95543.66;;;4.66;100.00
6136;BME280;24008;42.664;23.372;2022-12-18T02:27:50;95604.25;;;4.99;100.00
6136;BME280;24008;42.664;23.372;2022-12-18T02:30:19;95596.84;;;4.96;100.00
6136;BME280;24008;42.664;23.372;2022-12-18T02:32:49;95599.38;;;4.96;100.00
6136;BME280;24008;42.664;23.372;2022-12-18T02:35:20;95450.56;;;3.96;100.00
6136;BME280;24008;42.664;23.372;2022-12-18T02:37:49;95577.75;;;4.75;100.00
6136;BME280;24008;42.664;23.372;2022-12-18T02:40:17;95604.13;;;4.87;100.00
6136;BME280;24008;42.664;23.372;2022-12-18T02:42:45;95586.25;;;4.74;100.00
6136;BME280;24008;42.664;23.372;2022-12-18T02:45:14;95604.56;;;4.79;100.00
6136;BME280;24008;42.664;23.372;2022-12-18T02:47:43;95555.44;;;4.52;100.00
6136;BME280;24008;42.664;23.372;2022-12-18T02:50:17;95617.63;;;4.87;100.00
6136;BME280;24008;42.664;23.372;2022-12-18T02:52:52;95612.72;;;4.84;100.00
6136;BME280;24008;42.664;23.372;2022-12-18T02:55:29;95592.84;;;4.47;100.00
6136;BME280;24008;42.664;23.372;2022-12-18T02:58:04;95619.53;;;4.68;100.00
6136;BME280;24008;42.664;23.372;2022-12-18T03:00:38;95624.19;;;4.60;100.00
6136;BME280;24008;42.664;23.372;2022-12-18T03:03:11;95623.63;;;4.55;100.00
6136;BME280;24008;42.664;23.372;2022-12-18T03:05:44;95629.81;;;4.49;100.00
6136;BME280;24008;42.664;23.372;2022-12-18T03:08:20;95628.09;;;4.50;100.00
6136;BME280;24008;42.664;23.372;2022-12-18T03:10:51;95643.28;;;4.50;100.00
6136;BME280;24008;42.664;23.372;2022-12-18T03:13:24;95646.91;;;4.46;100.00
6136;BME280;24008;42.664;23.372;2022-12-18T03:15:55;95617.50;;;4.27;100.00
6136;BME280;24008;42.664;23.372;2022-12-18T03:18:26;95634.88;;;4.49;100.00
6136;BME280;24008;42.664;23.372;2022-12-18T03:20:58;95603.78;;;4.31;100.00
6136;BME280;24008;42.664;23.372;2022-12-18T03:23:32;95547.56;;;3.95;100.00
6136;BME280;24008;42.664;23.372;2022-12-18T03:26:04;95640.75;;;4.50;100.00
6136;BME280;24008;42.664;23.372;2022-12-18T03:28:34;95645.00;;;4.49;100.00
6136;BME280;24008;42.664;23.372;2022-12-18T03:31:07;95632.53;;;4.30;100.00
6136;BME280;24008;42.664;23.372;2022-12-18T03:33:39;95630.88;;;4.29;100.00
6136;BME280;24008;42.664;23.372;2022-12-18T03:36:08;95581.75;;;3.86;100.00
6136;BME280;24008;42.664;23.372;2022-12-18T03:38:35;95665.00;;;4.38;100.00
6136;BME280;24008;42.664;23.372;2022-12-18T03:41:09;95675.13;;;4.38;100.00
6136;BME280;24008;42.664;23.372;2022-12-18T03:43:44;95676.28;;;4.32;100.00
6136;BME280;24008;42.664;23.372;2022-12-18T03:46:24;95666.47;;;4.26;100.00
6136;BME280;24008;42.664;23.372;2022-12-18T03:48:57;95671.69;;;4.23;100.00
6136;BME280;24008;42.664;23.372;2022-12-18T03:51:29;95675.94;;;4.23;100.00
6136;BME280;24008;42.664;23.372;2022-12-18T03:54:01;95568.59;;;3.47;100.00
6136;BME280;24008;42.664;23.372;2022-12-18T03:56:31;95633.91;;;3.72;100.00
6136;BME280;24008;42.664;23.372;2022-12-18T03:59:00;95690.69;;;4.15;100.00
6136;BME280;24008;42.664;23.372;2022-12-18T04:01:31;95682.06;;;4.19;100.00
6136;BME280;24008;42.664;23.372;2022-12-18T04:04:01;95681.38;;;4.15;100.00
6136;BME280;24008;42.664;23.372;2022-12-18T04:06:29;95689.41;;;4.23;100.00
6136;BME280;24008;42.664;23.372;2022-12-18T04:08:57;95695.19;;;4.25;100.00
6136;BME280;24008;42.664;23.372;2022-12-18T04:11:25;95621.38;;;3.86;100.00
6136;BME280;24008;42.664;23.372;2022-12-18T04:13:55;95668.00;;;4.13;100.00
6136;BME280;24008;42.664;23.372;2022-12-18T04:16:21;95557.22;;;3.38;100.00
6136;BME280;24008;42.664;23.372;2022-12-18T04:18:50;95696.53;;;4.32;100.00
6136;BME280;24008;42.664;23.372;2022-12-18T04:21:17;95670.72;;;4.10;100.00
6136;BME280;24008;42.664;23.372;2022-12-18T04:23:43;95702.34;;;4.34;100.00
6136;BME280;24008;42.664;23.372;2022-12-18T04:26:10;95711.53;;;4.35;100.00
6136;BME280;24008;42.664;23.372;2022-12-18T04:28:37;95712.34;;;4.36;99.66
6136;BME280;24008;42.664;23.372;2022-12-18T04:31:04;95609.66;;;3.68;98.36
6136;BME280;24008;42.664;23.372;2022-12-18T04:33:31;95716.78;;;4.32;98.14
6136;BME280;24008;42.664;23.372;2022-12-18T04:35:59;95622.16;;;3.71;98.37
6136;BME280;24008;42.664;23.372;2022-12-18T04:38:26;95727.88;;;4.30;97.55
6136;BME280;24008;42.664;23.372;2022-12-18T04:40:52;95662.47;;;3.89;97.83
6136;BME280;24008;42.664;23.372;2022-12-18T04:43:19;95743.13;;;4.28;97.72
6136;BME280;24008;42.664;23.372;2022-12-18T04:45:46;95733.91;;;4.27;97.61
6136;BME280;24008;42.664;23.372;2022-12-18T04:48:13;95740.53;;;4.30;97.02
6136;BME280;24008;42.664;23.372;2022-12-18T04:50:40;95651.81;;;3.67;96.20
6136;BME280;24008;42.664;23.372;2022-12-18T04:53:08;95750.94;;;4.24;95.91
6136;BME280;24008;42.664;23.372;2022-12-18T04:55:35;95759.34;;;4.24;96.50
6136;BME280;24008;42.664;23.372;2022-12-18T04:58:01;95730.22;;;4.00;95.51
6136;BME280;24008;42.664;23.372;2022-12-18T05:00:28;95747.78;;;4.20;94.32
6136;BME280;24008;42.664;23.372;2022-12-18T05:02:55;95761.59;;;4.13;93.71
6136;BME280;24008;42.664;23.372;2022-12-18T05:05:22;95759.16;;;4.12;93.62
6136;BME280;24008;42.664;23.372;2022-12-18T05:07:48;95756.88;;;4.07;93.76
6136;BME280;24008;42.664;23.372;2022-12-18T05:10:16;95687.81;;;3.55;93.84
6136;BME280;24008;42.664;23.372;2022-12-18T05:12:43;95769.59;;;4.06;94.01
6136;BME280;24008;42.664;23.372;2022-12-18T05:15:26;95772.06;;;4.07;93.67
6136;BME280;24008;42.664;23.372;2022-12-18T05:17:53;95779.03;;;4.02;93.72
6136;BME280;24008;42.664;23.372;2022-12-18T05:20:20;95715.53;;;3.56;93.66
6136;BME280;24008;42.664;23.372;2022-12-18T05:22:47;95792.75;;;3.98;93.34
6136;BME280;24008;42.664;23.372;2022-12-18T05:25:14;95790.28;;;3.96;93.29
6136;BME280;24008;42.664;23.372;2022-12-18T05:27:43;95799.72;;;3.93;92.89
6136;BME280;24008;42.664;23.372;2022-12-18T05:30:11;95695.75;;;3.30;93.44
6136;BME280;24008;42.664;23.372;2022-12-18T05:32:38;95808.28;;;3.90;93.36
6136;BME280;24008;42.664;23.372;2022-12-18T05:35:07;95808.50;;;3.86;93.13
6136;BME280;24008;42.664;23.372;2022-12-18T05:37:35;95807.59;;;3.87;94.10
6136;BME280;24008;42.664;23.372;2022-12-18T05:40:02;95817.13;;;3.82;93.39
6136;BME280;24008;42.664;23.372;2022-12-18T05:42:29;95808.03;;;3.78;93.35
6136;BME280;24008;42.664;23.372;2022-12-18T05:44:57;95770.34;;;3.56;93.58
6136;BME280;24008;42.664;23.372;2022-12-18T05:47:23;95808.03;;;3.78;93.35
6136;BME280;24008;42.664;23.372;2022-12-18T05:49:50;95810.44;;;3.81;92.87
6136;BME280;24008;42.664;23.372;2022-12-18T05:52:17;95820.56;;;3.81;93.04
6136;BME280;24008;42.664;23.372;2022-12-18T05:54:44;95810.50;;;3.79;93.65
6136;BME280;24008;42.664;23.372;2022-12-18T05:57:10;95819.06;;;3.77;92.04
6136;BME280;24008;42.664;23.372;2022-12-18T05:59:37;95813.34;;;3.73;91.90
6136;BME280;24008;42.664;23.372;2022-12-18T06:02:06;95825.00;;;3.76;91.78
6136;BME280;24008;42.664;23.372;2022-12-18T06:04:32;95830.66;;;3.81;93.08
6136;BME280;24008;42.664;23.372;2022-12-18T06:06:59;95832.31;;;3.82;92.29
6136;BME280;24008;42.664;23.372;2022-12-18T06:09:26;95751.09;;;3.17;90.66
6136;BME280;24008;42.664;23.372;2022-12-18T06:11:53;95836.75;;;3.77;91.40
6136;BME280;24008;42.664;23.372;2022-12-18T06:14:20;95788.41;;;3.48;91.42
6136;BME280;24008;42.664;23.372;2022-12-18T06:16:46;95835.41;;;3.87;91.08
6136;BME280;24008;42.664;23.372;2022-12-18T06:19:16;95625.34;;;2.53;90.31
6136;BME280;24008;42.664;23.372;2022-12-18T06:21:43;95782.28;;;3.35;90.07
6136;BME280;24008;42.664;23.372;2022-12-18T06:24:10;95704.25;;;2.93;89.61
6136;BME280;24008;42.664;23.372;2022-12-18T06:26:37;95742.44;;;3.04;89.93
6136;BME280;24008;42.664;23.372;2022-12-18T06:29:04;95697.31;;;2.79;90.04
6136;BME280;24008;42.664;23.372;2022-12-18T06:31:31;95831.69;;;3.59;90.62
6136;BME280;24008;42.664;23.372;2022-12-18T06:33:57;95870.16;;;3.83;90.72
6136;BME280;24008;42.664;23.372;2022-12-18T06:36:26;95865.13;;;3.83;89.75
6136;BME280;24008;42.664;23.372;2022-12-18T06:38:52;95672.97;;;2.60;90.00
6136;BME280;24008;42.664;23.372;2022-12-18T06:41:20;95823.78;;;3.48;89.54
6136;BME280;24008;42.664;23.372;2022-12-18T06:43:47;95749.13;;;3.05;90.12
6136;BME280;24008;42.664;23.372;2022-12-18T06:46:14;95849.84;;;3.68;89.80
6136;BME280;24008;42.664;23.372;2022-12-18T06:48:42;95876.50;;;3.92;90.25
6136;BME280;24008;42.664;23.372;2022-12-18T06:51:09;95890.03;;;3.91;88.80
6136;BME280;24008;42.664;23.372;2022-12-18T06:53:37;95877.38;;;3.91;88.81
6136;BME280;24008;42.664;23.372;2022-12-18T06:56:06;95875.81;;;3.71;89.22
6136;BME280;24008;42.664;23.372;2022-12-18T06:58:33;95784.31;;;3.27;89.01
6136;BME280;24008;42.664;23.372;2022-12-18T07:01:00;95888.88;;;3.98;89.12
6136;BME280;24008;42.664;23.372;2022-12-18T07:03:27;95902.22;;;4.00;88.49
6136;BME280;24008;42.664;23.372;2022-12-18T07:05:54;95895.31;;;4.04;87.71
6136;BME280;24008;42.664;23.372;2022-12-18T07:08:21;95903.88;;;4.01;86.57
6136;BME280;24008;42.664;23.372;2022-12-18T07:10:49;95864.16;;;3.86;86.86
6136;BME280;24008;42.664;23.372;2022-12-18T07:13:16;95908.34;;;4.13;86.29
6136;BME280;24008;42.664;23.372;2022-12-18T07:15:43;95896.44;;;4.15;86.03
6136;BME280;24008;42.664;23.372;2022-12-18T07:18:10;95898.09;;;4.16;85.53
6136;BME280;24008;42.664;23.372;2022-12-18T07:20:37;95901.50;;;4.15;84.55
6136;BME280;24008;42.664;23.372;2022-12-18T07:23:04;95644.69;;;2.53;84.36
6136;BME280;24008;42.664;23.372;2022-12-18T07:25:33;95851.03;;;3.78;84.54
6136;BME280;24008;42.664;23.372;2022-12-18T07:28:01;95908.16;;;4.18;85.30
6136;BME280;24008;42.664;23.372;2022-12-18T07:30:28;95878.59;;;4.01;85.01
6136;BME280;24008;42.664;23.372;2022-12-18T07:32:55;95905.31;;;4.24;84.81
6136;BME280;24008;42.664;23.372;2022-12-18T07:35:22;95911.19;;;4.24;84.32
6136;BME280;24008;42.664;23.372;2022-12-18T07:37:49;95920.78;;;4.18;84.68
6136;BME280;24008;42.664;23.372;2022-12-18T07:40:15;95876.22;;;3.98;84.30
6136;BME280;24008;42.664;23.372;2022-12-18T07:42:42;95850.22;;;3.77;84.72
6136;BME280;24008;42.664;23.372;2022-12-18T07:45:11;95923.84;;;4.24;84.12
6136;BME280;24008;42.664;23.372;2022-12-18T07:47:37;95935.78;;;4.22;84.61
6136;BME280;24008;42.664;23.372;2022-12-18T07:50:07;95935.09;;;4.19;83.94
6136;BME280;24008;42.664;23.372;2022-12-18T07:52:33;95933.25;;;4.22;83.77
6136;BME280;24008;42.664;23.372;2022-12-18T07:55:00;95937.31;;;4.25;84.47
6136;BME280;24008;42.664;23.372;2022-12-18T07:57:27;95938.94;;;4.26;84.17
6136;BME280;24008;42.664;23.372;2022-12-18T07:59:54;95932.44;;;4.22;83.99
6136;BME280;24008;42.664;23.372;2022-12-18T08:02:22;95946.78;;;4.21;84.62
6136;BME280;24008;42.664;23.372;2022-12-18T08:04:49;95953.56;;;4.21;84.72
6136;BME280;24008;42.664;23.372;2022-12-18T08:07:16;95907.59;;;3.94;84.58
6136;BME280;24008;42.664;23.372;2022-12-18T08:09:43;95974.63;;;4.21;85.03
6136;BME280;24008;42.664;23.372;2022-12-18T08:12:10;95799.59;;;3.07;84.56
6136;BME280;24008;42.664;23.372;2022-12-18T08:14:36;95970.34;;;4.05;84.31
6136;BME280;24008;42.664;23.372;2022-12-18T08:17:03;95979.63;;;4.04;84.82
6136;BME280;24008;42.664;23.372;2022-12-18T08:19:32;95970.50;;;3.83;85.42
6136;BME280;24008;42.664;23.372;2022-12-18T08:21:58;95933.34;;;3.66;85.66
6136;BME280;24008;42.664;23.372;2022-12-18T08:24:25;95910.53;;;3.49;85.09
6136;BME280;24008;42.664;23.372;2022-12-18T08:26:52;95952.47;;;3.72;85.22
6136;BME280;24008;42.664;23.372;2022-12-18T08:29:19;95970.63;;;3.80;86.08
6136;BME280;24008;42.664;23.372;2022-12-18T08:31:46;95910.66;;;3.46;85.64
6136;BME280;24008;42.664;23.372;2022-12-18T08:34:13;95995.50;;;3.89;85.38
6136;BME280;24008;42.664;23.372;2022-12-18T08:36:41;95874.22;;;3.14;85.19
6136;BME280;24008;42.664;23.372;2022-12-18T08:39:08;95991.25;;;3.89;85.33
6136;BME280;24008;42.664;23.372;2022-12-18T08:41:35;96006.44;;;3.89;85.27
6136;BME280;24008;42.664;23.372;2022-12-18T08:44:01;95996.19;;;3.92;86.13
6136;BME280;24008;42.664;23.372;2022-12-18T08:46:43;95876.53;;;3.18;86.53
6136;BME280;24008;42.664;23.372;2022-12-18T08:49:11;95956.56;;;3.55;85.52
6136;BME280;24008;42.664;23.372;2022-12-18T08:51:38;96008.03;;;3.92;85.64
6136;BME280;24008;42.664;23.372;2022-12-18T08:54:08;95928.31;;;3.47;85.79
6136;BME280;24008;42.664;23.372;2022-12-18T08:56:37;95953.63;;;3.65;85.72
6136;BME280;24008;42.664;23.372;2022-12-18T08:59:04;96014.59;;;3.96;84.66
6136;BME280;24008;42.664;23.372;2022-12-18T09:01:31;96004.13;;;3.85;83.80
6136;BME280;24008;42.664;23.372;2022-12-18T09:03:57;95977.47;;;3.78;84.18
6136;BME280;24008;42.664;23.372;2022-12-18T09:06:27;95998.34;;;4.00;84.22
6136;BME280;24008;42.664;23.372;2022-12-18T09:08:54;95929.38;;;3.60;82.15
6136;BME280;24008;42.664;23.372;2022-12-18T09:11:24;96000.63;;;4.06;81.75
6136;BME280;24008;42.664;23.372;2022-12-18T09:13:52;96005.47;;;4.11;81.30
6136;BME280;24008;42.664;23.372;2022-12-18T09:16:19;95954.44;;;3.84;81.09
6136;BME280;24008;42.664;23.372;2022-12-18T09:18:47;95943.38;;;3.68;80.51
6136;BME280;24008;42.664;23.372;2022-12-18T09:21:15;95970.38;;;3.86;79.93
6136;BME280;24008;42.664;23.372;2022-12-18T09:23:43;95878.56;;;3.29;79.33
6136;BME280;24008;42.664;23.372;2022-12-18T09:26:12;96002.19;;;4.09;80.26
6136;BME280;24008;42.664;23.372;2022-12-18T09:28:42;95961.22;;;3.83;78.85
6136;BME280;24008;42.664;23.372;2022-12-18T09:31:11;96001.22;;;4.11;79.53
6136;BME280;24008;42.664;23.372;2022-12-18T09:33:43;95739.69;;;2.54;79.09
6136;BME280;24008;42.664;23.372;2022-12-18T09:36:13;95931.06;;;3.79;78.84
6136;BME280;24008;42.664;23.372;2022-12-18T09:38:40;96001.78;;;4.35;78.40
6136;BME280;24008;42.664;23.372;2022-12-18T09:41:17;95967.09;;;4.20;78.54
6136;BME280;24008;42.664;23.372;2022-12-18T09:43:50;95979.25;;;4.30;78.24
6136;BME280;24008;42.664;23.372;2022-12-18T09:46:23;95934.97;;;4.03;77.85
6136;BME280;24008;42.664;23.372;2022-12-18T09:48:54;95953.31;;;4.08;77.25
6136;BME280;24008;42.664;23.372;2022-12-18T09:51:26;95890.16;;;3.71;77.11
6136;BME280;24008;42.664;23.372;2022-12-18T09:53:57;96016.50;;;4.46;77.21
6136;BME280;24008;42.664;23.372;2022-12-18T09:56:28;96005.38;;;4.48;76.23
6136;BME280;24008;42.664;23.372;2022-12-18T09:59:00;95953.56;;;4.21;76.57
6136;BME280;24008;42.664;23.372;2022-12-18T10:01:29;95821.50;;;3.61;76.30
6136;BME280;24008;42.664;23.372;2022-12-18T10:03:58;95797.31;;;3.55;75.77
6136;BME280;24008;42.664;23.372;2022-12-18T10:06:32;96003.81;;;4.97;75.18
6136;BME280;24008;42.664;23.372;2022-12-18T10:09:07;95930.72;;;4.57;74.84
6136;BME280;24008;42.664;23.372;2022-12-18T10:11:43;96010.75;;;5.11;73.71
6136;BME280;24008;42.664;23.372;2022-12-18T10:14:23;95947.16;;;4.83;73.71
6136;BME280;24008;42.664;23.372;2022-12-18T10:16:59;95965.06;;;4.95;73.29
6136;BME280;24008;42.664;23.372;2022-12-18T10:19:39;95918.06;;;4.57;72.30
6136;BME280;24008;42.664;23.372;2022-12-18T10:22:20;96001.44;;;5.12;72.30
6136;BME280;24008;42.664;23.372;2022-12-18T10:24:54;95948.13;;;4.63;72.19
6136;BME280;24008;42.664;23.372;2022-12-18T10:27:25;95711.56;;;3.16;72.05
6136;BME280;24008;42.664;23.372;2022-12-18T10:29:54;95889.91;;;4.28;72.86
6136;BME280;24008;42.664;23.372;2022-12-18T10:32:23;96006.06;;;5.03;72.08
6136;BME280;24008;42.664;23.372;2022-12-18T10:34:52;95998.47;;;5.03;72.17
6136;BME280;24008;42.664;23.372;2022-12-18T10:37:21;95884.09;;;4.26;71.25
6136;BME280;24008;42.664;23.372;2022-12-18T10:40:06;95790.78;;;3.69;71.06
6136;BME280;24008;42.664;23.372;2022-12-18T10:42:34;96013.13;;;4.97;71.84
6136;BME280;24008;42.664;23.372;2022-12-18T10:45:07;95985.59;;;4.91;72.50
6136;BME280;24008;42.664;23.372;2022-12-18T10:47:35;95983.47;;;4.99;72.65
6136;BME280;24008;42.664;23.372;2022-12-18T10:50:02;95948.47;;;4.90;72.26
6136;BME280;24008;42.664;23.372;2022-12-18T10:52:29;95991.06;;;5.16;72.94
6136;BME280;24008;42.664;23.372;2022-12-18T10:54:58;95927.13;;;4.78;72.64
6136;BME280;24008;42.664;23.372;2022-12-18T10:57:32;95764.75;;;3.67;71.91
6136;BME280;24008;42.664;23.372;2022-12-18T11:00:22;95997.03;;;5.15;71.86
6136;BME280;24008;42.664;23.372;2022-12-18T11:02:50;95994.66;;;5.12;72.54
6136;BME280;24008;42.664;23.372;2022-12-18T11:05:27;95927.41;;;4.72;72.16
6136;BME280;24008;42.664;23.372;2022-12-18T11:07:54;95994.25;;;5.20;72.64
6136;BME280;24008;42.664;23.372;2022-12-18T11:10:25;95877.00;;;4.50;72.24
6136;BME280;24008;42.664;23.372;2022-12-18T11:12:52;95990.69;;;5.24;71.86
6136;BME280;24008;42.664;23.372;2022-12-18T11:15:24;95791.63;;;4.04;71.32
6136;BME280;24008;42.664;23.372;2022-12-18T11:17:52;95998.44;;;5.21;71.55
6136;BME280;24008;42.664;23.372;2022-12-18T11:20:27;95936.28;;;4.81;71.64
6136;BME280;24008;42.664;23.372;2022-12-18T11:22:58;95995.00;;;5.22;71.96
6136;BME280;24008;42.664;23.372;2022-12-18T11:25:26;95999.88;;;5.09;69.79
6136;BME280;24008;42.664;23.372;2022-12-18T11:28:26;95946.78;;;4.73;70.10
6136;BME280;24008;42.664;23.372;2022-12-18T11:31:18;96001.28;;;5.15;70.97
6136;BME280;24008;42.664;23.372;2022-12-18T11:33:49;95937.09;;;4.81;69.94
6136;BME280;24008;42.664;23.372;2022-12-18T11:36:17;96001.97;;;5.18;69.93
6136;BME280;24008;42.664;23.372;2022-12-18T11:38:46;95937.41;;;4.75;70.35
6136;BME280;24008;42.664;23.372;2022-12-18T11:41:19;96002.41;;;5.09;69.59
6136;BME280;24008;42.664;23.372;2022-12-18T11:43:52;95954.97;;;4.78;70.00
6136;BME280;24008;42.664;23.372;2022-12-18T11:46:27;96007.25;;;5.14;70.62
6136;BME280;24008;42.664;23.372;2022-12-18T11:49:01;96008.88;;;5.15;70.95
6136;BME280;24008;42.664;23.372;2022-12-18T11:51:34;96008.13;;;5.13;70.66
6136;BME280;24008;42.664;23.372;2022-12-18T11:54:10;96009.63;;;5.17;70.15
6136;BME280;24008;42.664;23.372;2022-12-18T11:56:43;96014.25;;;5.08;69.61
6136;BME280;24008;42.664;23.372;2022-12-18T11:59:22;96000.31;;;5.17;70.15
6136;BME280;24008;42.664;23.372;2022-12-18T12:01:56;95859.34;;;4.33;69.82
6136;BME280;24008;42.664;23.372;2022-12-18T12:05:01;96006.94;;;5.20;70.11
6136;BME280;24008;42.664;23.372;2022-12-18T12:07:38;96004.38;;;5.20;70.29
6136;BME280;24008;42.664;23.372;2022-12-18T12:10:17;96000.88;;;5.22;69.42
6136;BME280;24008;42.664;23.372;2022-12-18T12:12:55;96004.91;;;5.26;69.68
6136;BME280;24008;42.664;23.372;2022-12-18T12:15:34;95948.56;;;4.88;69.95
6136;BME280;24008;42.664;23.372;2022-12-18T12:18:18;96005.88;;;5.24;69.86
6136;BME280;24008;42.664;23.372;2022-12-18T12:20:51;95981.78;;;4.99;69.57
6136;BME280;24008;42.664;23.372;2022-12-18T12:23:28;95907.09;;;4.56;70.09
6136;BME280;24008;42.664;23.372;2022-12-18T12:26:02;96003.91;;;5.13;70.28
6136;BME280;24008;42.664;23.372;2022-12-18T12:28:57;96004.34;;;5.04;70.93
6136;BME280;24008;42.664;23.372;2022-12-18T12:31:47;95876.44;;;4.28;71.62
6136;BME280;24008;42.664;23.372;2022-12-18T12:34:23;96005.69;;;5.11;71.25
6136;BME280;24008;42.664;23.372;2022-12-18T12:37:11;95986.97;;;4.96;71.36
6136;BME280;24008;42.664;23.372;2022-12-18T12:39:44;96006.50;;;5.12;71.11
6136;BME280;24008;42.664;23.372;2022-12-18T12:42:15;96024.66;;;5.20;71.79
6136;BME280;24008;42.664;23.372;2022-12-18T12:45:05;95978.19;;;5.03;71.36
6136;BME280;24008;42.664;23.372;2022-12-18T12:47:38;96007.75;;;5.20;70.91
6136;BME280;24008;42.664;23.372;2022-12-18T12:50:14;96017.06;;;5.20;71.00
6136;BME280;24008;42.664;23.372;2022-12-18T12:52:45;95718.94;;;3.21;71.67
6136;BME280;24008;42.664;23.372;2022-12-18T12:55:16;96034.53;;;5.08;71.29
6136;BME280;24008;42.664;23.372;2022-12-18T12:57:46;96023.00;;;5.03;71.49
6136;BME280;24008;42.664;23.372;2022-12-18T13:00:17;96020.38;;;5.04;71.17
6136;BME280;24008;42.664;23.372;2022-12-18T13:02:50;95991.94;;;4.82;71.59
6136;BME280;24008;42.664;23.372;2022-12-18T13:05:24;96038.06;;;5.06;72.09
6136;BME280;24008;42.664;23.372;2022-12-18T13:07:59;95968.53;;;4.60;71.54
6136;BME280;24008;42.664;23.372;2022-12-18T13:10:33;95995.34;;;4.81;71.73
6136;BME280;24008;42.664;23.372;2022-12-18T13:13:02;96003.41;;;4.89;70.62
6136;BME280;24008;42.664;23.372;2022-12-18T13:15:47;95998.53;;;4.85;71.43
6136;BME280;24008;42.664;23.372;2022-12-18T13:18:17;95993.53;;;4.83;71.84
6136;BME280;24008;42.664;23.372;2022-12-18T13:20:47;96009.56;;;5.01;72.02
6136;BME280;24008;42.664;23.372;2022-12-18T13:23:23;96049.06;;;5.22;71.42